Terminal Aerodrome Forecast
Issued by NWS

Home | Current Version | Previous Version | Graphics & Text | Print | Product List | Glossary On
Versions: 1 2 3 4 5 6 7 8 9 10 11 12 13 14 15
000
FTUS43 KMPX 131400 AAA
TAFRNH
TAF AMD
KRNH 131454Z 1315/1412 35012G20KT P6SM BKN009 OVC015
     FM131630 36014G22KT P6SM SCT009 OVC012
     FM132100 35019G25KT P6SM SCT015 BKN035
     FM140300 35016G21KT P6SM BKN050
     FM140800 33015KT P6SM SCT050 BKN250=

USA.gov is the U.S. government's official web portal to all federal, state and local government web resources and services.